sensor_id;sensor_type;location;lat;lon;timestamp;P1;durP1;ratioP1;P2;durP2;ratioP2
69185;SDS011;56298;49.246;9.410;2023-01-19T00:00:59;26.73;;;23.70;;
69185;SDS011;56298;49.246;9.410;2023-01-19T00:03:24;28.47;;;25.40;;
69185;SDS011;56298;49.246;9.410;2023-01-19T00:05:50;26.67;;;23.70;;
69185;SDS011;56298;49.246;9.410;2023-01-19T00:08:16;26.00;;;23.23;;
69185;SDS011;56298;49.246;9.410;2023-01-19T00:10:46;27.42;;;23.38;;
69185;SDS011;56298;49.246;9.410;2023-01-19T00:13:13;28.55;;;24.02;;
69185;SDS011;56298;49.246;9.410;2023-01-19T00:15:39;30.97;;;25.80;;
69185;SDS011;56298;49.246;9.410;2023-01-19T00:18:04;27.27;;;23.87;;
69185;SDS011;56298;49.246;9.410;2023-01-19T00:20:30;27.75;;;24.73;;
69185;SDS011;56298;49.246;9.410;2023-01-19T00:22:56;28.95;;;24.92;;
69185;SDS011;56298;49.246;9.410;2023-01-19T00:25:22;27.83;;;24.87;;
69185;SDS011;56298;49.246;9.410;2023-01-19T00:27:47;27.90;;;23.23;;
69185;SDS011;56298;49.246;9.410;2023-01-19T00:30:13;26.27;;;23.07;;
69185;SDS011;56298;49.246;9.410;2023-01-19T00:32:41;26.30;;;23.45;;
69185;SDS011;56298;49.246;9.410;2023-01-19T00:35:06;28.20;;;25.15;;
69185;SDS011;56298;49.246;9.410;2023-01-19T00:37:32;27.27;;;24.37;;
69185;SDS011;56298;49.246;9.410;2023-01-19T00:39:57;28.67;;;24.10;;
69185;SDS011;56298;49.246;9.410;2023-01-19T00:42:22;27.73;;;22.13;;
69185;SDS011;56298;49.246;9.410;2023-01-19T00:45:12;25.98;;;22.83;;
69185;SDS011;56298;49.246;9.410;2023-01-19T00:47:42;25.00;;;22.30;;
69185;SDS011;56298;49.246;9.410;2023-01-19T00:50:08;29.85;;;24.30;;
69185;SDS011;56298;49.246;9.410;2023-01-19T00:52:38;27.65;;;23.77;;
69185;SDS011;56298;49.246;9.410;2023-01-19T00:55:05;27.05;;;24.15;;
69185;SDS011;56298;49.246;9.410;2023-01-19T00:57:31;25.73;;;22.53;;
69185;SDS011;56298;49.246;9.410;2023-01-19T00:59:57;28.33;;;24.37;;
69185;SDS011;56298;49.246;9.410;2023-01-19T01:02:22;27.10;;;22.47;;
69185;SDS011;56298;49.246;9.410;2023-01-19T01:04:47;26.25;;;22.25;;
69185;SDS011;56298;49.246;9.410;2023-01-19T01:07:13;25.70;;;23.00;;
69185;SDS011;56298;49.246;9.410;2023-01-19T01:09:38;25.43;;;22.43;;
69185;SDS011;56298;49.246;9.410;2023-01-19T01:12:03;27.10;;;23.37;;
69185;SDS011;56298;49.246;9.410;2023-01-19T01:14:29;26.93;;;23.43;;
69185;SDS011;56298;49.246;9.410;2023-01-19T01:16:54;26.47;;;23.00;;
69185;SDS011;56298;49.246;9.410;2023-01-19T01:19:19;28.47;;;22.83;;
69185;SDS011;56298;49.246;9.410;2023-01-19T01:21:45;26.27;;;23.30;;
69185;SDS011;56298;49.246;9.410;2023-01-19T01:24:10;27.70;;;23.83;;
69185;SDS011;56298;49.246;9.410;2023-01-19T01:26:35;27.57;;;23.90;;
69185;SDS011;56298;49.246;9.410;2023-01-19T01:29:01;26.90;;;23.17;;
69185;SDS011;56298;49.246;9.410;2023-01-19T01:31:26;27.00;;;24.10;;
69185;SDS011;56298;49.246;9.410;2023-01-19T01:33:51;25.90;;;23.00;;
69185;SDS011;56298;49.246;9.410;2023-01-19T01:36:16;26.63;;;23.73;;
69185;SDS011;56298;49.246;9.410;2023-01-19T01:38:43;27.80;;;22.73;;
69185;SDS011;56298;49.246;9.410;2023-01-19T01:41:09;28.38;;;22.85;;
69185;SDS011;56298;49.246;9.410;2023-01-19T01:46:09;27.13;;;23.88;;
69185;SDS011;56298;49.246;9.410;2023-01-19T01:48:34;28.05;;;22.98;;
69185;SDS011;56298;49.246;9.410;2023-01-19T01:51:08;27.05;;;21.33;;
69185;SDS011;56298;49.246;9.410;2023-01-19T01:56:52;28.73;;;23.45;;
69185;SDS011;56298;49.246;9.410;2023-01-19T01:59:22;28.20;;;23.13;;
69185;SDS011;56298;49.246;9.410;2023-01-19T02:02:11;26.15;;;22.23;;
69185;SDS011;56298;49.246;9.410;2023-01-19T02:05:01;26.30;;;22.55;;
69185;SDS011;56298;49.246;9.410;2023-01-19T02:10:33;30.10;;;24.23;;
69185;SDS011;56298;49.246;9.410;2023-01-19T02:13:17;28.90;;;25.23;;
69185;SDS011;56298;49.246;9.410;2023-01-19T02:15:52;27.92;;;23.60;;
69185;SDS011;56298;49.246;9.410;2023-01-19T02:18:20;28.30;;;24.10;;
69185;SDS011;56298;49.246;9.410;2023-01-19T02:20:49;30.50;;;24.90;;
69185;SDS011;56298;49.246;9.410;2023-01-19T02:23:26;28.00;;;24.25;;
69185;SDS011;56298;49.246;9.410;2023-01-19T02:25:57;28.30;;;23.67;;
69185;SDS011;56298;49.246;9.410;2023-01-19T02:28:24;26.80;;;23.90;;
69185;SDS011;56298;49.246;9.410;2023-01-19T02:30:51;27.35;;;23.00;;
69185;SDS011;56298;49.246;9.410;2023-01-19T02:33:16;27.60;;;22.87;;
69185;SDS011;56298;49.246;9.410;2023-01-19T02:35:42;28.52;;;24.48;;
69185;SDS011;56298;49.246;9.410;2023-01-19T02:38:08;28.10;;;24.25;;
69185;SDS011;56298;49.246;9.410;2023-01-19T02:40:34;30.50;;;23.85;;
69185;SDS011;56298;49.246;9.410;2023-01-19T02:43:02;29.03;;;22.27;;
69185;SDS011;56298;49.246;9.410;2023-01-19T02:45:28;27.93;;;23.63;;
69185;SDS011;56298;49.246;9.410;2023-01-19T02:47:54;28.97;;;23.60;;
69185;SDS011;56298;49.246;9.410;2023-01-19T02:51:22;29.53;;;24.03;;
69185;SDS011;56298;49.246;9.410;2023-01-19T02:53:34;29.37;;;24.80;;
69185;SDS011;56298;49.246;9.410;2023-01-19T02:59:04;28.33;;;24.95;;
69185;SDS011;56298;49.246;9.410;2023-01-19T03:06:54;27.60;;;23.38;;
69185;SDS011;56298;49.246;9.410;2023-01-19T03:12:04;30.65;;;24.55;;
69185;SDS011;56298;49.246;9.410;2023-01-19T03:14:36;27.67;;;23.60;;
69185;SDS011;56298;49.246;9.410;2023-01-19T03:17:06;30.15;;;25.90;;
69185;SDS011;56298;49.246;9.410;2023-01-19T03:19:37;28.90;;;25.20;;
69185;SDS011;56298;49.246;9.410;2023-01-19T03:22:06;33.03;;;25.90;;
69185;SDS011;56298;49.246;9.410;2023-01-19T03:24:36;29.30;;;23.85;;
69185;SDS011;56298;49.246;9.410;2023-01-19T03:27:14;26.98;;;22.60;;
69185;SDS011;56298;49.246;9.410;2023-01-19T03:29:41;29.40;;;23.40;;
69185;SDS011;56298;49.246;9.410;2023-01-19T03:32:11;29.75;;;24.20;;
69185;SDS011;56298;49.246;9.410;2023-01-19T03:34:40;28.60;;;24.77;;
69185;SDS011;56298;49.246;9.410;2023-01-19T03:37:07;33.08;;;25.25;;
69185;SDS011;56298;49.246;9.410;2023-01-19T03:39:35;29.95;;;24.52;;
69185;SDS011;56298;49.246;9.410;2023-01-19T03:42:12;28.80;;;24.03;;
69185;SDS011;56298;49.246;9.410;2023-01-19T03:44:40;30.13;;;24.40;;
69185;SDS011;56298;49.246;9.410;2023-01-19T03:47:07;30.43;;;24.87;;
69185;SDS011;56298;49.246;9.410;2023-01-19T03:49:34;27.35;;;24.40;;
69185;SDS011;56298;49.246;9.410;2023-01-19T03:52:01;29.60;;;24.60;;
69185;SDS011;56298;49.246;9.410;2023-01-19T03:54:27;30.88;;;25.50;;
69185;SDS011;56298;49.246;9.410;2023-01-19T03:56:53;27.03;;;23.87;;
69185;SDS011;56298;49.246;9.410;2023-01-19T03:59:18;30.27;;;24.25;;
69185;SDS011;56298;49.246;9.410;2023-01-19T04:01:45;29.80;;;24.10;;
69185;SDS011;56298;49.246;9.410;2023-01-19T04:04:11;31.55;;;25.75;;
69185;SDS011;56298;49.246;9.410;2023-01-19T04:06:37;29.38;;;24.40;;
69185;SDS011;56298;49.246;9.410;2023-01-19T04:09:03;30.23;;;24.67;;
69185;SDS011;56298;49.246;9.410;2023-01-19T04:11:28;29.00;;;24.10;;
69185;SDS011;56298;49.246;9.410;2023-01-19T04:13:53;30.63;;;24.03;;
69185;SDS011;56298;49.246;9.410;2023-01-19T04:16:19;31.67;;;25.67;;
69185;SDS011;56298;49.246;9.410;2023-01-19T04:18:45;28.45;;;23.60;;
69185;SDS011;56298;49.246;9.410;2023-01-19T04:21:11;29.07;;;25.93;;
69185;SDS011;56298;49.246;9.410;2023-01-19T04:23:36;29.60;;;25.10;;
69185;SDS011;56298;49.246;9.410;2023-01-19T04:26:05;31.37;;;24.17;;
69185;SDS011;56298;49.246;9.410;2023-01-19T04:28:31;28.55;;;24.98;;
69185;SDS011;56298;49.246;9.410;2023-01-19T04:30:58;30.40;;;24.88;;
69185;SDS011;56298;49.246;9.410;2023-01-19T04:33:23;30.67;;;26.47;;
69185;SDS011;56298;49.246;9.410;2023-01-19T04:35:49;30.15;;;25.17;;
69185;SDS011;56298;49.246;9.410;2023-01-19T04:38:16;29.07;;;24.50;;
69185;SDS011;56298;49.246;9.410;2023-01-19T04:40:41;30.83;;;24.67;;
69185;SDS011;56298;49.246;9.410;2023-01-19T04:43:07;30.37;;;24.97;;
69185;SDS011;56298;49.246;9.410;2023-01-19T04:45:32;30.70;;;24.35;;
69185;SDS011;56298;49.246;9.410;2023-01-19T04:47:58;30.33;;;25.13;;
69185;SDS011;56298;49.246;9.410;2023-01-19T04:50:23;30.90;;;24.75;;
69185;SDS011;56298;49.246;9.410;2023-01-19T04:52:48;28.80;;;24.53;;
69185;SDS011;56298;49.246;9.410;2023-01-19T04:55:14;30.37;;;24.70;;
69185;SDS011;56298;49.246;9.410;2023-01-19T04:57:39;30.40;;;25.17;;
69185;SDS011;56298;49.246;9.410;2023-01-19T05:00:05;31.50;;;26.33;;
69185;SDS011;56298;49.246;9.410;2023-01-19T05:02:31;29.15;;;26.05;;
69185;SDS011;56298;49.246;9.410;2023-01-19T05:04:57;30.20;;;26.48;;
69185;SDS011;56298;49.246;9.410;2023-01-19T05:07:23;31.27;;;25.75;;
69185;SDS011;56298;49.246;9.410;2023-01-19T05:09:48;29.60;;;24.63;;
69185;SDS011;56298;49.246;9.410;2023-01-19T05:12:13;29.80;;;24.77;;
69185;SDS011;56298;49.246;9.410;2023-01-19T05:14:39;31.37;;;25.83;;
69185;SDS011;56298;49.246;9.410;2023-01-19T05:17:04;29.77;;;24.20;;
69185;SDS011;56298;49.246;9.410;2023-01-19T05:19:29;28.70;;;24.93;;
69185;SDS011;56298;49.246;9.410;2023-01-19T05:21:55;31.15;;;25.40;;
69185;SDS011;56298;49.246;9.410;2023-01-19T05:24:20;29.97;;;25.03;;
69185;SDS011;56298;49.246;9.410;2023-01-19T05:26:45;30.23;;;24.57;;
69185;SDS011;56298;49.246;9.410;2023-01-19T05:29:11;29.60;;;24.47;;
69185;SDS011;56298;49.246;9.410;2023-01-19T05:31:36;28.42;;;24.90;;
69185;SDS011;56298;49.246;9.410;2023-01-19T05:34:02;28.63;;;24.53;;
69185;SDS011;56298;49.246;9.410;2023-01-19T05:36:28;32.53;;;24.40;;
69185;SDS011;56298;49.246;9.410;2023-01-19T05:38:53;29.27;;;26.07;;
69185;SDS011;56298;49.246;9.410;2023-01-19T05:41:19;29.30;;;24.47;;
69185;SDS011;56298;49.246;9.410;2023-01-19T05:43:44;29.70;;;25.93;;
69185;SDS011;56298;49.246;9.410;2023-01-19T05:46:09;29.37;;;25.23;;
69185;SDS011;56298;49.246;9.410;2023-01-19T05:48:35;30.17;;;24.60;;
69185;SDS011;56298;49.246;9.410;2023-01-19T05:51:00;30.27;;;24.60;;
69185;SDS011;56298;49.246;9.410;2023-01-19T05:53:26;29.30;;;25.70;;
69185;SDS011;56298;49.246;9.410;2023-01-19T05:55:52;30.97;;;24.80;;
69185;SDS011;56298;49.246;9.410;2023-01-19T05:58:18;29.48;;;25.08;;
69185;SDS011;56298;49.246;9.410;2023-01-19T06:00:43;29.23;;;24.23;;
69185;SDS011;56298;49.246;9.410;2023-01-19T06:03:08;31.87;;;24.67;;
69185;SDS011;56298;49.246;9.410;2023-01-19T06:05:33;31.73;;;25.90;;
69185;SDS011;56298;49.246;9.410;2023-01-19T06:07:59;31.42;;;25.27;;
69185;SDS011;56298;49.246;9.410;2023-01-19T06:10:25;31.25;;;24.25;;
69185;SDS011;56298;49.246;9.410;2023-01-19T06:12:50;30.23;;;25.00;;
69185;SDS011;56298;49.246;9.410;2023-01-19T06:15:16;28.80;;;25.17;;
69185;SDS011;56298;49.246;9.410;2023-01-19T06:17:41;31.17;;;25.97;;
69185;SDS011;56298;49.246;9.410;2023-01-19T06:20:07;31.27;;;26.33;;
69185;SDS011;56298;49.246;9.410;2023-01-19T06:22:33;30.98;;;25.35;;
69185;SDS011;56298;49.246;9.410;2023-01-19T06:24:58;31.10;;;24.97;;
69185;SDS011;56298;49.246;9.410;2023-01-19T06:27:23;31.90;;;24.70;;
69185;SDS011;56298;49.246;9.410;2023-01-19T06:29:49;31.03;;;24.50;;
69185;SDS011;56298;49.246;9.410;2023-01-19T06:32:14;31.57;;;24.73;;
69185;SDS011;56298;49.246;9.410;2023-01-19T06:34:39;30.90;;;24.03;;
69185;SDS011;56298;49.246;9.410;2023-01-19T06:37:07;31.02;;;24.75;;
69185;SDS011;56298;49.246;9.410;2023-01-19T06:39:35;27.55;;;24.50;;
69185;SDS011;56298;49.246;9.410;2023-01-19T06:42:01;28.67;;;24.10;;
69185;SDS011;56298;49.246;9.410;2023-01-19T06:44:27;32.60;;;25.20;;
69185;SDS011;56298;49.246;9.410;2023-01-19T06:46:52;29.57;;;24.63;;
69185;SDS011;56298;49.246;9.410;2023-01-19T06:49:18;30.73;;;24.13;;
69185;SDS011;56298;49.246;9.410;2023-01-19T06:51:43;30.33;;;24.93;;
69185;SDS011;56298;49.246;9.410;2023-01-19T06:54:08;32.90;;;26.00;;
69185;SDS011;56298;49.246;9.410;2023-01-19T06:56:33;31.10;;;24.83;;
69185;SDS011;56298;49.246;9.410;2023-01-19T06:58:59;31.20;;;24.87;;
69185;SDS011;56298;49.246;9.410;2023-01-19T07:01:24;32.38;;;24.52;;
69185;SDS011;56298;49.246;9.410;2023-01-19T07:03:50;34.30;;;26.53;;
69185;SDS011;56298;49.246;9.410;2023-01-19T07:06:15;33.23;;;26.70;;
69185;SDS011;56298;49.246;9.410;2023-01-19T07:08:41;32.97;;;26.53;;
69185;SDS011;56298;49.246;9.410;2023-01-19T07:11:07;32.13;;;25.87;;
69185;SDS011;56298;49.246;9.410;2023-01-19T07:13:34;27.58;;;22.48;;
69185;SDS011;56298;49.246;9.410;2023-01-19T07:16:04;27.88;;;24.35;;
69185;SDS011;56298;49.246;9.410;2023-01-19T07:18:30;26.48;;;23.13;;
69185;SDS011;56298;49.246;9.410;2023-01-19T07:20:56;26.37;;;22.90;;
69185;SDS011;56298;49.246;9.410;2023-01-19T07:23:22;28.02;;;22.58;;
69185;SDS011;56298;49.246;9.410;2023-01-19T07:25:47;25.53;;;22.83;;
69185;SDS011;56298;49.246;9.410;2023-01-19T07:28:12;28.43;;;23.83;;
69185;SDS011;56298;49.246;9.410;2023-01-19T07:30:39;25.90;;;23.10;;
69185;SDS011;56298;49.246;9.410;2023-01-19T07:33:06;29.35;;;26.02;;
69185;SDS011;56298;49.246;9.410;2023-01-19T07:35:31;30.03;;;26.47;;
69185;SDS011;56298;49.246;9.410;2023-01-19T07:37:57;29.63;;;25.77;;
69185;SDS011;56298;49.246;9.410;2023-01-19T07:40:22;26.88;;;23.60;;
69185;SDS011;56298;49.246;9.410;2023-01-19T07:42:48;27.52;;;24.73;;
69185;SDS011;56298;49.246;9.410;2023-01-19T07:45:18;26.45;;;23.65;;
69185;SDS011;56298;49.246;9.410;2023-01-19T07:47:45;27.52;;;23.75;;
69185;SDS011;56298;49.246;9.410;2023-01-19T07:50:13;28.17;;;23.35;;
69185;SDS011;56298;49.246;9.410;2023-01-19T07:52:39;29.83;;;24.47;;
69185;SDS011;56298;49.246;9.410;2023-01-19T07:55:04;26.40;;;23.60;;
69185;SDS011;56298;49.246;9.410;2023-01-19T07:57:30;25.67;;;22.05;;
69185;SDS011;56298;49.246;9.410;2023-01-19T07:59:55;25.87;;;21.60;;
69185;SDS011;56298;49.246;9.410;2023-01-19T08:02:20;24.80;;;19.57;;
69185;SDS011;56298;49.246;9.410;2023-01-19T08:04:46;25.20;;;17.80;;
69185;SDS011;56298;49.246;9.410;2023-01-19T08:07:12;25.33;;;16.75;;
69185;SDS011;56298;49.246;9.410;2023-01-19T08:09:38;25.90;;;16.07;;
69185;SDS011;56298;49.246;9.410;2023-01-19T08:12:03;25.57;;;15.80;;
69185;SDS011;56298;49.246;9.410;2023-01-19T08:14:28;22.80;;;13.68;;
69185;SDS011;56298;49.246;9.410;2023-01-19T08:16:57;21.27;;;12.52;;
69185;SDS011;56298;49.246;9.410;2023-01-19T08:19:23;23.10;;;13.10;;
69185;SDS011;56298;49.246;9.410;2023-01-19T08:21:48;23.23;;;12.83;;
69185;SDS011;56298;49.246;9.410;2023-01-19T08:24:16;23.23;;;12.50;;
69185;SDS011;56298;49.246;9.410;2023-01-19T08:26:43;25.75;;;12.98;;
69185;SDS011;56298;49.246;9.410;2023-01-19T08:29:08;22.40;;;12.75;;
69185;SDS011;56298;49.246;9.410;2023-01-19T08:31:33;23.53;;;12.93;;
69185;SDS011;56298;49.246;9.410;2023-01-19T08:33:59;22.20;;;12.27;;
69185;SDS011;56298;49.246;9.410;2023-01-19T08:36:24;23.57;;;12.33;;
69185;SDS011;56298;49.246;9.410;2023-01-19T08:38:49;20.20;;;11.97;;
69185;SDS011;56298;49.246;9.410;2023-01-19T08:41:15;21.17;;;11.77;;
69185;SDS011;56298;49.246;9.410;2023-01-19T08:43:43;20.67;;;11.57;;
69185;SDS011;56298;49.246;9.410;2023-01-19T08:46:11;22.83;;;11.70;;
69185;SDS011;56298;49.246;9.410;2023-01-19T08:48:40;22.65;;;12.40;;
69185;SDS011;56298;49.246;9.410;2023-01-19T08:51:06;21.27;;;12.13;;
69185;SDS011;56298;49.246;9.410;2023-01-19T08:53:32;20.33;;;11.73;;
69185;SDS011;56298;49.246;9.410;2023-01-19T08:55:58;22.60;;;12.13;;
69185;SDS011;56298;49.246;9.410;2023-01-19T08:58:26;26.15;;;15.27;;
69185;SDS011;56298;49.246;9.410;2023-01-19T09:00:52;29.10;;;15.07;;
69185;SDS011;56298;49.246;9.410;2023-01-19T09:03:17;32.17;;;16.50;;
69185;SDS011;56298;49.246;9.410;2023-01-19T09:05:44;29.67;;;17.55;;
69185;SDS011;56298;49.246;9.410;2023-01-19T09:08:11;34.47;;;18.33;;
69185;SDS011;56298;49.246;9.410;2023-01-19T09:10:38;34.40;;;17.77;;
69185;SDS011;56298;49.246;9.410;2023-01-19T09:13:07;31.05;;;16.58;;
69185;SDS011;56298;49.246;9.410;2023-01-19T09:15:35;32.03;;;17.98;;
69185;SDS011;56298;49.246;9.410;2023-01-19T09:18:01;29.75;;;16.35;;
69185;SDS011;56298;49.246;9.410;2023-01-19T09:20:28;31.63;;;16.10;;
69185;SDS011;56298;49.246;9.410;2023-01-19T09:22:55;26.67;;;15.10;;
69185;SDS011;56298;49.246;9.410;2023-01-19T09:25:21;26.83;;;14.73;;
69185;SDS011;56298;49.246;9.410;2023-01-19T09:27:46;21.03;;;12.50;;
69185;SDS011;56298;49.246;9.410;2023-01-19T09:30:11;21.60;;;12.10;;
69185;SDS011;56298;49.246;9.410;2023-01-19T09:32:37;23.75;;;12.02;;
69185;SDS011;56298;49.246;9.410;2023-01-19T09:35:02;24.07;;;12.80;;
69185;SDS011;56298;49.246;9.410;2023-01-19T09:37:28;25.13;;;13.52;;
69185;SDS011;56298;49.246;9.410;2023-01-19T09:39:53;22.58;;;13.05;;
69185;SDS011;56298;49.246;9.410;2023-01-19T09:42:26;25.73;;;13.57;;
69185;SDS011;56298;49.246;9.410;2023-01-19T09:45:01;22.00;;;12.63;;
69185;SDS011;56298;49.246;9.410;2023-01-19T09:47:29;23.17;;;12.88;;
69185;SDS011;56298;49.246;9.410;2023-01-19T09:50:11;21.80;;;11.97;;
69185;SDS011;56298;49.246;9.410;2023-01-19T09:52:46;23.00;;;12.60;;
69185;SDS011;56298;49.246;9.410;2023-01-19T09:55:18;19.83;;;11.00;;
69185;SDS011;56298;49.246;9.410;2023-01-19T09:57:46;19.13;;;9.98;;
69185;SDS011;56298;49.246;9.410;2023-01-19T10:00:15;15.93;;;9.53;;
69185;SDS011;56298;49.246;9.410;2023-01-19T10:02:43;30.55;;;16.70;;
69185;SDS011;56298;49.246;9.410;2023-01-19T10:07:57;25.05;;;13.50;;
69185;SDS011;56298;49.246;9.410;2023-01-19T10:10:33;30.90;;;15.60;;
69185;SDS011;56298;49.246;9.410;2023-01-19T10:21:14;19.65;;;11.02;;
69185;SDS011;56298;49.246;9.410;2023-01-19T10:23:50;22.98;;;13.30;;
69185;SDS011;56298;49.246;9.410;2023-01-19T10:26:17;18.27;;;10.40;;
69185;SDS011;56298;49.246;9.410;2023-01-19T10:28:54;18.45;;;10.18;;
69185;SDS011;56298;49.246;9.410;2023-01-19T10:31:25;19.27;;;10.68;;
69185;SDS011;56298;49.246;9.410;2023-01-19T10:33:51;19.97;;;10.60;;
69185;SDS011;56298;49.246;9.410;2023-01-19T10:36:19;91.60;;;15.38;;
69185;SDS011;56298;49.246;9.410;2023-01-19T10:38:58;18.83;;;10.52;;
69185;SDS011;56298;49.246;9.410;2023-01-19T10:41:28;18.80;;;10.13;;
69185;SDS011;56298;49.246;9.410;2023-01-19T10:44:03;19.37;;;11.10;;
69185;SDS011;56298;49.246;9.410;2023-01-19T10:46:45;18.52;;;10.77;;
69185;SDS011;56298;49.246;9.410;2023-01-19T10:52:10;18.20;;;9.73;;
69185;SDS011;56298;49.246;9.410;2023-01-19T10:54:48;17.15;;;9.70;;
69185;SDS011;56298;49.246;9.410;2023-01-19T10:57:20;22.80;;;13.70;;
69185;SDS011;56298;49.246;9.410;2023-01-19T10:59:51;24.25;;;11.50;;
69185;SDS011;56298;49.246;9.410;2023-01-19T11:04:44;18.52;;;10.60;;
69185;SDS011;56298;49.246;9.410;2023-01-19T11:07:24;20.73;;;11.43;;
69185;SDS011;56298;49.246;9.410;2023-01-19T11:10:10;18.05;;;9.95;;
69185;SDS011;56298;49.246;9.410;2023-01-19T11:12:38;15.00;;;8.85;;
69185;SDS011;56298;49.246;9.410;2023-01-19T11:15:15;20.08;;;11.05;;
69185;SDS011;56298;49.246;9.410;2023-01-19T11:17:46;22.02;;;11.35;;
69185;SDS011;56298;49.246;9.410;2023-01-19T11:20:20;26.93;;;14.37;;
69185;SDS011;56298;49.246;9.410;2023-01-19T11:22:47;20.38;;;11.88;;
69185;SDS011;56298;49.246;9.410;2023-01-19T11:25:28;17.93;;;10.57;;
69185;SDS011;56298;49.246;9.410;2023-01-19T11:27:55;22.52;;;11.65;;
69185;SDS011;56298;49.246;9.410;2023-01-19T11:30:21;21.33;;;12.23;;
69185;SDS011;56298;49.246;9.410;2023-01-19T11:32:49;23.85;;;11.68;;
69185;SDS011;56298;49.246;9.410;2023-01-19T11:35:35;20.33;;;10.52;;
69185;SDS011;56298;49.246;9.410;2023-01-19T11:38:12;16.77;;;9.23;;
69185;SDS011;56298;49.246;9.410;2023-01-19T11:40:41;17.27;;;9.30;;
69185;SDS011;56298;49.246;9.410;2023-01-19T11:43:14;20.55;;;10.27;;
69185;SDS011;56298;49.246;9.410;2023-01-19T11:45:40;26.97;;;12.17;;
69185;SDS011;56298;49.246;9.410;2023-01-19T11:48:05;40.33;;;16.20;;
69185;SDS011;56298;49.246;9.410;2023-01-19T11:50:42;39.92;;;16.20;;
69185;SDS011;56298;49.246;9.410;2023-01-19T11:58:14;35.90;;;14.55;;
69185;SDS011;56298;49.246;9.410;2023-01-19T12:03:29;22.00;;;10.65;;
69185;SDS011;56298;49.246;9.410;2023-01-19T12:06:17;22.40;;;11.75;;
69185;SDS011;56298;49.246;9.410;2023-01-19T12:08:54;20.33;;;10.90;;
69185;SDS011;56298;49.246;9.410;2023-01-19T12:11:26;16.35;;;8.48;;
69185;SDS011;56298;49.246;9.410;2023-01-19T12:13:56;17.60;;;10.23;;
69185;SDS011;56298;49.246;9.410;2023-01-19T12:16:22;14.03;;;7.90;;
69185;SDS011;56298;49.246;9.410;2023-01-19T12:18:51;16.97;;;9.03;;
69185;SDS011;56298;49.246;9.410;2023-01-19T12:21:20;17.17;;;8.30;;
69185;SDS011;56298;49.246;9.410;2023-01-19T12:26:24;19.90;;;11.00;;
69185;SDS011;56298;49.246;9.410;2023-01-19T12:28:53;18.20;;;8.87;;
69185;SDS011;56298;49.246;9.410;2023-01-19T12:31:22;15.93;;;8.32;;
69185;SDS011;56298;49.246;9.410;2023-01-19T12:33:48;15.40;;;8.20;;
69185;SDS011;56298;49.246;9.410;2023-01-19T12:39:12;15.88;;;9.27;;
69185;SDS011;56298;49.246;9.410;2023-01-19T12:41:41;21.65;;;10.93;;
69185;SDS011;56298;49.246;9.410;2023-01-19T12:49:21;12.00;;;6.80;;
69185;SDS011;56298;49.246;9.410;2023-01-19T12:51:51;12.67;;;6.70;;
69185;SDS011;56298;49.246;9.410;2023-01-19T12:54:22;12.27;;;7.32;;
69185;SDS011;56298;49.246;9.410;2023-01-19T12:56:57;14.83;;;7.90;;
69185;SDS011;56298;49.246;9.410;2023-01-19T12:59:26;23.85;;;14.25;;
69185;SDS011;56298;49.246;9.410;2023-01-19T13:04:42;16.37;;;10.03;;
69185;SDS011;56298;49.246;9.410;2023-01-19T13:21:36;13.00;;;6.38;;
69185;SDS011;56298;49.246;9.410;2023-01-19T13:24:08;12.38;;;6.85;;
69185;SDS011;56298;49.246;9.410;2023-01-19T13:26:36;14.13;;;7.68;;
69185;SDS011;56298;49.246;9.410;2023-01-19T13:31:50;14.93;;;7.07;;
69185;SDS011;56298;49.246;9.410;2023-01-19T13:34:26;19.65;;;8.70;;
69185;SDS011;56298;49.246;9.410;2023-01-19T13:36:53;17.17;;;8.98;;
69185;SDS011;56298;49.246;9.410;2023-01-19T13:39:26;18.25;;;8.95;;
69185;SDS011;56298;49.246;9.410;2023-01-19T13:41:53;14.60;;;7.97;;
69185;SDS011;56298;49.246;9.410;2023-01-19T13:44:23;22.13;;;11.68;;
69185;SDS011;56298;49.246;9.410;2023-01-19T13:46:50;16.23;;;8.15;;
69185;SDS011;56298;49.246;9.410;2023-01-19T13:49:21;12.20;;;7.05;;
69185;SDS011;56298;49.246;9.410;2023-01-19T13:52:10;15.30;;;8.45;;
69185;SDS011;56298;49.246;9.410;2023-01-19T13:57:20;24.73;;;12.13;;
69185;SDS011;56298;49.246;9.410;2023-01-19T14:02:39;20.55;;;11.07;;
69185;SDS011;56298;49.246;9.410;2023-01-19T14:10:39;14.68;;;8.35;;
69185;SDS011;56298;49.246;9.410;2023-01-19T14:15:51;13.38;;;8.10;;
69185;SDS011;56298;49.246;9.410;2023-01-19T14:20:51;13.30;;;6.72;;
69185;SDS011;56298;49.246;9.410;2023-01-19T14:29:27;12.23;;;5.90;;
69185;SDS011;56298;49.246;9.410;2023-01-19T14:34:27;12.43;;;6.03;;
69185;SDS011;56298;49.246;9.410;2023-01-19T14:37:26;14.80;;;6.30;;
69185;SDS011;56298;49.246;9.410;2023-01-19T14:45:14;12.60;;;5.65;;
69185;SDS011;56298;49.246;9.410;2023-01-19T14:47:42;12.93;;;5.90;;
69185;SDS011;56298;49.246;9.410;2023-01-19T14:55:46;19.55;;;8.82;;
69185;SDS011;56298;49.246;9.410;2023-01-19T14:58:15;16.67;;;8.50;;
69185;SDS011;56298;49.246;9.410;2023-01-19T15:00:43;13.73;;;6.78;;
69185;SDS011;56298;49.246;9.410;2023-01-19T15:03:10;14.60;;;7.35;;
69185;SDS011;56298;49.246;9.410;2023-01-19T15:05:36;13.63;;;6.97;;
69185;SDS011;56298;49.246;9.410;2023-01-19T15:08:02;13.50;;;6.90;;
69185;SDS011;56298;49.246;9.410;2023-01-19T15:10:28;14.15;;;6.50;;
69185;SDS011;56298;49.246;9.410;2023-01-19T15:12:54;11.43;;;5.93;;
69185;SDS011;56298;49.246;9.410;2023-01-19T15:15:28;12.90;;;6.63;;
69185;SDS011;56298;49.246;9.410;2023-01-19T15:17:55;13.63;;;7.30;;
69185;SDS011;56298;49.246;9.410;2023-01-19T15:20:22;14.37;;;6.70;;
69185;SDS011;56298;49.246;9.410;2023-01-19T15:22:47;13.73;;;6.75;;
69185;SDS011;56298;49.246;9.410;2023-01-19T15:25:18;14.00;;;6.97;;
69185;SDS011;56298;49.246;9.410;2023-01-19T15:27:44;11.68;;;6.68;;
69185;SDS011;56298;49.246;9.410;2023-01-19T15:30:18;12.97;;;6.90;;
69185;SDS011;56298;49.246;9.410;2023-01-19T15:32:48;15.27;;;6.90;;
69185;SDS011;56298;49.246;9.410;2023-01-19T15:37:40;13.00;;;6.63;;
69185;SDS011;56298;49.246;9.410;2023-01-19T15:40:06;16.87;;;7.20;;
69185;SDS011;56298;49.246;9.410;2023-01-19T15:42:31;21.88;;;10.15;;
69185;SDS011;56298;49.246;9.410;2023-01-19T15:44:57;20.17;;;9.70;;
69185;SDS011;56298;49.246;9.410;2023-01-19T15:47:22;15.20;;;6.97;;
69185;SDS011;56298;49.246;9.410;2023-01-19T15:49:48;18.25;;;9.10;;
69185;SDS011;56298;49.246;9.410;2023-01-19T15:52:13;23.10;;;11.33;;
69185;SDS011;56298;49.246;9.410;2023-01-19T15:54:38;17.17;;;8.20;;
69185;SDS011;56298;49.246;9.410;2023-01-19T15:57:04;15.43;;;8.07;;
69185;SDS011;56298;49.246;9.410;2023-01-19T15:59:29;23.50;;;11.52;;
69185;SDS011;56298;49.246;9.410;2023-01-19T16:01:54;28.43;;;12.60;;
69185;SDS011;56298;49.246;9.410;2023-01-19T16:04:20;47.33;;;16.47;;
69185;SDS011;56298;49.246;9.410;2023-01-19T16:06:45;28.53;;;12.17;;
69185;SDS011;56298;49.246;9.410;2023-01-19T16:09:10;21.70;;;10.57;;
69185;SDS011;56298;49.246;9.410;2023-01-19T16:11:40;18.13;;;8.40;;
69185;SDS011;56298;49.246;9.410;2023-01-19T16:14:05;33.72;;;15.10;;
69185;SDS011;56298;49.246;9.410;2023-01-19T16:16:31;18.90;;;9.57;;
69185;SDS011;56298;49.246;9.410;2023-01-19T16:18:57;16.27;;;8.82;;
69185;SDS011;56298;49.246;9.410;2023-01-19T16:21:22;23.30;;;11.57;;